Time;durP1;ratioP1;P1;durP2;ratioP2;P2;SDS_P1;SDS_P2;PMS_P1;PMS_P2;Temp;Humidity;BMP_temperature;BMP_pressure;BME280_temperature;BME280_humidity;BME280_pressure;Samples;Min_cycle;Max_cycle;Signal;HPM_P1;HPM_P2
2023/06/06 00:02:46;;;;;;;25.58;13.48;;;;;;;14.62;100.00;94484.81;5050828;28;20032;-85
2023/06/06 00:05:13;;;;;;;15.85;10.00;;;;;;;14.74;100.00;94477.25;5039333;28;20036;-85
2023/06/06 00:07:40;;;;;;;15.80;9.90;;;;;;;14.80;100.00;94488.50;5039026;28;20025;-85
2023/06/06 00:10:15;;;;;;;14.60;9.23;;;;;;;14.84;100.00;94490.25;5039112;28;20056;-85
2023/06/06 00:18:11;;;;;;;15.60;9.90;;;;;;;14.55;100.00;94472.78;5041696;28;20082;-85
2023/06/06 00:23:40;;;;;;;14.88;9.32;;;;;;;14.33;100.00;94470.78;5041654;28;20083;-85
2023/06/06 00:26:26;;;;;;;16.70;9.00;;;;;;;13.87;100.00;94469.59;5039084;28;20343;-85
2023/06/06 00:28:51;;;;;;;18.73;10.48;;;;;;;13.69;100.00;94458.78;5039006;28;20033;-85
2023/06/06 00:31:16;;;;;;;23.23;12.60;;;;;;;13.56;100.00;94464.75;5038775;28;20345;-85
2023/06/06 00:33:42;;;;;;;18.25;10.70;;;;;;;13.83;100.00;94464.13;5022658;28;20029;-85
2023/06/06 00:36:07;;;;;;;21.75;9.88;;;;;;;13.92;100.00;94472.19;5056426;28;20051;-85
2023/06/06 00:38:33;;;;;;;18.70;9.00;;;;;;;13.98;100.00;94464.97;5038736;28;20075;-85
2023/06/06 00:43:43;;;;;;;23.17;11.38;;;;;;;13.67;100.00;94465.41;5048085;28;20508;-85
2023/06/06 00:46:10;;;;;;;25.35;11.50;;;;;;;13.67;100.00;94466.19;5028825;28;20111;-85
2023/06/06 00:48:36;;;;;;;21.40;11.10;;;;;;;13.87;100.00;94466.19;5028869;28;20119;-85
2023/06/06 00:51:20;;;;;;;24.60;11.13;;;;;;;13.94;100.00;94464.78;5045260;28;20059;-86
2023/06/06 00:54:14;;;;;;;21.67;9.73;;;;;;;14.07;100.00;94470.41;5048369;28;20033;-85
2023/06/06 00:56:42;;;;;;;11.55;6.97;;;;;;;14.17;100.00;94467.59;5062882;28;20074;-85
2023/06/06 01:02:14;;;;;;;18.40;8.63;;;;;;;14.59;100.00;94472.19;5058433;28;20686;-85
2023/06/06 01:05:01;;;;;;;17.80;9.65;;;;;;;14.69;100.00;94472.03;5029206;28;20031;-85
2023/06/06 01:07:29;;;;;;;14.15;8.38;;;;;;;14.62;100.00;94474.25;5070634;28;20028;-85
2023/06/06 01:10:13;;;;;;;9.25;6.18;;;;;;;14.48;100.00;94461.81;5028951;28;20059;-85
2023/06/06 01:13:13;;;;;;;8.60;5.63;;;;;;;14.64;100.00;94464.22;5062887;28;20035;-85
2023/06/06 01:15:51;;;;;;;10.30;5.43;;;;;;;14.53;100.00;94468.88;5062712;28;20062;-85
2023/06/06 01:21:01;;;;;;;7.38;4.07;;;;;;;14.51;100.00;94463.91;5047662;28;20472;-84
2023/06/06 01:23:27;;;;;;;6.95;3.55;;;;;;;14.62;100.00;94467.13;5045249;28;20119;-85
2023/06/06 01:25:53;;;;;;;9.07;4.00;;;;;;;14.47;100.00;94468.16;5028545;28;20043;-85
2023/06/06 01:28:19;;;;;;;6.72;3.35;;;;;;;14.53;100.00;94458.31;5050892;28;20033;-85
2023/06/06 01:31:02;;;;;;;6.25;3.17;;;;;;;14.66;100.00;94457.56;5078466;28;20032;-85
2023/06/06 01:33:43;;;;;;;4.80;3.50;;;;;;;14.52;100.00;94457.56;5081034;28;20043;-85
2023/06/06 01:36:41;;;;;;;8.30;4.20;;;;;;;14.68;100.00;94452.00;5063207;28;20117;-85
2023/06/06 01:39:15;;;;;;;4.85;3.40;;;;;;;14.78;100.00;94446.59;5046473;28;20157;-85
2023/06/06 01:41:59;;;;;;;4.93;3.17;;;;;;;14.74;100.00;94453.50;5046360;28;20055;-85
2023/06/06 01:44:44;;;;;;;4.95;3.40;;;;;;;14.43;100.00;94456.66;5063036;28;20105;-85
2023/06/06 01:47:10;;;;;;;8.43;3.45;;;;;;;14.34;100.00;94451.25;5062818;28;20044;-85
2023/06/06 01:49:36;;;;;;;7.35;3.42;;;;;;;14.48;100.00;94446.00;5046468;28;20264;-85
2023/06/06 01:52:02;;;;;;;14.70;4.15;;;;;;;13.68;100.00;94445.91;5044952;28;20143;-85
2023/06/06 01:54:28;;;;;;;151.32;8.43;;;;;;;13.28;100.00;94451.38;5059291;28;20020;-85
2023/06/06 01:56:53;;;;;;;10.25;4.07;;;;;;;13.51;100.00;94456.94;5043145;28;20047;-85
2023/06/06 01:59:19;;;;;;;8.60;4.05;;;;;;;13.85;100.00;94453.31;5059741;28;20270;-85
2023/06/06 02:01:45;;;;;;;5.70;3.75;;;;;;;14.07;100.00;94460.63;5043368;28;20028;-84
2023/06/06 02:04:10;;;;;;;8.23;3.92;;;;;;;13.87;100.00;94448.53;5043434;28;20361;-87
2023/06/06 02:06:36;;;;;;;6.40;4.07;;;;;;;14.00;100.00;94455.72;5059912;28;20028;-85
2023/06/06 02:09:01;;;;;;;7.70;4.28;;;;;;;13.66;100.00;94451.47;5077481;28;20025;-85
2023/06/06 02:11:28;;;;;;;8.82;4.50;;;;;;;13.78;100.00;94451.03;5059414;28;20024;-85
2023/06/06 02:13:57;;;;;;;6.40;4.15;;;;;;;14.02;100.00;94452.00;5060091;28;20032;-86
2023/06/06 02:16:29;;;;;;;4.57;3.20;;;;;;;14.46;100.00;94458.69;5060394;28;20032;-85
2023/06/06 02:18:55;;;;;;;4.83;3.50;;;;;;;14.63;100.00;94447.59;5060470;28;20453;-85
2023/06/06 02:21:20;;;;;;;5.28;3.45;;;;;;;14.57;100.00;94448.78;5059690;28;20266;-85
2023/06/06 02:26:31;;;;;;;10.32;3.38;;;;;;;14.44;100.00;94452.16;5077368;28;20105;-85
2023/06/06 02:28:57;;;;;;;5.72;3.08;;;;;;;14.68;100.00;94449.38;5043199;28;20024;-85
2023/06/06 02:31:23;;;;;;;5.10;3.40;;;;;;;14.68;100.00;94454.66;5059355;28;20028;-85
2023/06/06 02:33:48;;;;;;;5.40;3.50;;;;;;;14.72;100.00;94453.03;5042378;28;20024;-85
2023/06/06 02:36:17;;;;;;;4.35;3.08;;;;;;;14.90;100.00;94447.94;5038695;28;20032;-86
2023/06/06 02:38:42;;;;;;;5.15;2.45;;;;;;;15.02;100.00;94442.22;5040862;28;20327;-85
2023/06/06 02:41:07;;;;;;;6.45;2.78;;;;;;;14.65;100.00;94449.97;5040697;28;20113;-85
2023/06/06 02:43:35;;;;;;;3.33;2.00;;;;;;;14.80;100.00;94448.94;5058441;28;20118;-85
2023/06/06 02:46:01;;;;;;;9.07;2.53;;;;;;;14.44;100.00;94439.75;5040840;28;20338;-85
2023/06/06 02:51:11;;;;;;;5.60;2.35;;;;;;;14.65;100.00;94444.69;5043127;28;20086;-86
2023/06/06 02:53:40;;;;;;;8.70;2.40;;;;;;;14.46;100.00;94447.38;5040411;28;20107;-85
2023/06/06 02:56:06;;;;;;;7.07;2.72;;;;;;;13.81;100.00;94444.41;5040621;28;20446;-85
2023/06/06 03:01:20;;;;;;;5.13;3.53;;;;;;;13.96;100.00;94443.41;5056381;28;20176;-85
2023/06/06 03:03:46;;;;;;;2.80;2.45;;;;;;;14.18;100.00;94442.81;5034230;28;20033;-85
2023/06/06 03:06:12;;;;;;;6.13;2.42;;;;;;;14.39;100.00;94437.22;5054390;28;20409;-85
2023/06/06 03:08:42;;;;;;;6.57;2.72;;;;;;;14.42;100.00;94440.06;5057807;28;20036;-85
2023/06/06 03:11:08;;;;;;;4.45;2.75;;;;;;;14.47;100.00;94439.16;5046461;28;20357;-86
2023/06/06 03:13:33;;;;;;;6.88;3.25;;;;;;;14.28;100.00;94442.66;5060145;28;20028;-86
2023/06/06 03:15:59;;;;;;;8.38;2.85;;;;;;;14.46;100.00;94445.53;5059923;28;20048;-85
2023/06/06 03:18:25;;;;;;;10.98;3.30;;;;;;;13.70;100.00;94439.28;5077830;28;20031;-85
2023/06/06 03:20:53;;;;;;;10.57;3.53;;;;;;;13.46;100.00;94439.34;5059979;28;20031;-85
2023/06/06 03:23:20;;;;;;;11.88;4.10;;;;;;;13.34;100.00;94439.75;5060207;28;20032;-85
2023/06/06 03:25:49;;;;;;;10.25;4.95;;;;;;;13.34;100.00;94441.59;5056617;28;20449;-85
2023/06/06 03:28:34;;;;;;;5.90;4.05;;;;;;;13.74;100.00;94438.72;5040038;28;20033;-85
2023/06/06 03:30:59;;;;;;;8.43;3.85;;;;;;;13.90;100.00;94441.94;5039872;28;20402;-85
2023/06/06 03:33:24;;;;;;;11.00;3.63;;;;;;;13.92;100.00;94440.56;5023804;28;20068;-85
2023/06/06 03:36:09;;;;;;;8.88;4.10;;;;;;;13.87;100.00;94439.88;5023218;28;20438;-85
2023/06/06 03:38:35;;;;;;;9.15;4.28;;;;;;;13.70;100.00;94433.22;5057405;28;20052;-85
2023/06/06 03:41:02;;;;;;;7.15;4.30;;;;;;;13.85;100.00;94440.16;5039725;28;20178;-85
2023/06/06 03:43:27;;;;;;;13.50;5.65;;;;;;;13.47;100.00;94442.75;5022972;28;20068;-85
2023/06/06 03:45:53;;;;;;;7.25;4.15;;;;;;;13.52;100.00;94442.72;5023099;28;20186;-85
2023/06/06 03:48:18;;;;;;;14.48;5.07;;;;;;;13.22;100.00;94444.63;5039520;28;20074;-85
2023/06/06 03:50:43;;;;;;;12.00;5.90;;;;;;;13.19;100.00;94442.53;5039587;28;20036;-85
2023/06/06 03:53:28;;;;;;;9.95;5.40;;;;;;;13.65;100.00;94438.56;5023140;28;20025;-85
2023/06/06 03:55:53;;;;;;;9.65;5.25;;;;;;;13.66;100.00;94442.78;5022679;28;20032;-85
2023/06/06 03:58:20;;;;;;;8.73;5.35;;;;;;;13.55;100.00;94445.53;5039242;28;20338;-85
2023/06/06 04:01:04;;;;;;;10.80;5.97;;;;;;;13.38;100.00;94442.56;5023076;28;20024;-85
2023/06/06 04:03:48;;;;;;;12.93;7.30;;;;;;;13.27;100.00;94447.19;5022911;28;20029;-85
2023/06/06 04:06:14;;;;;;;12.10;5.97;;;;;;;13.10;100.00;94447.66;5056895;28;20549;-85
2023/06/06 04:08:40;;;;;;;12.48;5.43;;;;;;;13.28;100.00;94438.22;5039065;28;20025;-85
2023/06/06 04:14:28;;;;;;;11.63;5.22;;;;;;;13.82;100.00;94438.84;5056873;28;20031;-85
2023/06/06 04:16:54;;;;;;;8.75;5.43;;;;;;;13.81;100.00;94450.47;5056107;28;20060;-85
2023/06/06 04:19:19;;;;;;;114.57;8.45;;;;;;;13.52;100.00;94442.72;5039167;28;20119;-85
2023/06/06 04:21:48;;;;;;;17.88;6.00;;;;;;;13.81;100.00;94444.41;5039077;28;20075;-85
2023/06/06 04:24:14;;;;;;;256.35;13.63;;;;;;;13.58;100.00;94444.19;5038995;28;20025;-85
2023/06/06 04:26:39;;;;;;;82.68;8.75;;;;;;;13.48;100.00;94439.06;5040532;28;20025;-85
2023/06/06 04:29:05;;;;;;;181.60;10.60;;;;;;;13.47;100.00;94440.91;5058789;28;20029;-85
2023/06/06 04:31:31;;;;;;;47.72;6.47;;;;;;;13.51;100.00;94441.16;5042368;28;20119;-85
2023/06/06 04:37:05;;;;;;;11.30;4.80;;;;;;;14.63;100.00;94449.44;5061357;28;20036;-84
2023/06/06 04:39:33;;;;;;;8.40;4.30;;;;;;;14.82;100.00;94444.94;5057044;28;20027;-84
2023/06/06 04:42:08;;;;;;;7.07;3.97;;;;;;;15.04;100.00;94438.19;5056616;28;20047;-83
2023/06/06 04:44:42;;;;;;;7.20;3.80;;;;;;;15.05;100.00;94445.03;5076308;28;20033;-84
2023/06/06 04:47:29;;;;;;;9.40;4.82;;;;;;;15.10;100.00;94446.78;5058420;28;20648;-84
2023/06/06 04:49:56;;;;;;;7.15;3.72;;;;;;;15.32;100.00;94446.09;5058792;28;20119;-84
2023/06/06 04:52:24;;;;;;;8.63;3.60;;;;;;;15.47;100.00;94444.22;5058720;28;20029;-84
2023/06/06 04:54:51;;;;;;;7.43;3.60;;;;;;;15.53;100.00;94440.41;5058737;28;20021;-84
2023/06/06 04:57:17;;;;;;;7.00;3.95;;;;;;;14.78;100.00;94437.91;5058467;28;20457;-84
2023/06/06 04:59:49;;;;;;;10.00;3.45;;;;;;;14.77;100.00;94441.59;5076126;28;20024;-85
2023/06/06 05:04:59;;;;;;;3.50;2.90;;;;;;;15.97;100.00;94435.50;5076330;28;20070;-84
2023/06/06 05:07:24;;;;;;;7.57;2.88;;;;;;;16.31;100.00;94436.06;5057960;28;20028;-89
2023/06/06 05:10:09;;;;;;;4.40;2.97;;;;;;;16.61;100.00;94439.81;5042451;28;20353;-86
2023/06/06 05:12:35;;;;;;;5.95;2.92;;;;;;;16.80;100.00;94433.50;5058560;28;20070;-86
2023/06/06 05:15:00;;;;;;;6.13;2.97;;;;;;;17.07;100.00;94435.22;5041770;28;20020;-86
2023/06/06 05:17:27;;;;;;;4.93;2.80;;;;;;;17.08;100.00;94431.47;5041479;28;20120;-86
2023/06/06 05:19:54;;;;;;;6.25;2.70;;;;;;;17.33;100.00;94433.72;5058599;28;20396;-86
2023/06/06 05:22:19;;;;;;;3.92;2.42;;;;;;;17.51;100.00;94426.59;5058367;28;20035;-86
2023/06/06 05:24:45;;;;;;;4.90;2.53;;;;;;;17.24;100.00;94433.69;5058325;28;20331;-86
2023/06/06 05:27:11;;;;;;;7.47;2.63;;;;;;;16.81;100.00;94427.13;5057784;28;20062;-85
2023/06/06 05:29:37;;;;;;;4.32;2.15;;;;;;;17.45;100.00;94422.53;5061654;28;20033;-86
2023/06/06 05:34:48;;;;;;;3.95;2.25;;;;;;;17.87;100.00;94428.16;5064647;28;20039;-86
2023/06/06 05:37:32;;;;;;;7.20;2.20;;;;;;;17.74;100.00;94418.50;5061986;28;20028;-85
2023/06/06 05:40:16;;;;;;;7.60;2.22;;;;;;;17.95;100.00;94419.44;5061477;28;20480;-86
2023/06/06 05:45:25;;;;;;;;;;;;;;;18.26;100.00;94422.25;5079598;28;20040;-87
2023/06/06 05:47:51;;;;;;;17.42;2.53;;;;;;;17.25;100.00;94422.03;5045500;28;19912;-87
2023/06/06 05:50:35;;;;;;;7.78;2.90;;;;;;;16.93;100.00;94426.56;5062196;28;20115;-87
2023/06/06 05:53:02;;;;;;;5.28;2.63;;;;;;;17.81;100.00;94434.72;5045441;28;20035;-87
2023/06/06 05:55:32;;;;;;;6.18;2.72;;;;;;;17.98;100.00;94433.16;5079209;28;20033;-88
2023/06/06 05:57:58;;;;;;;3.55;2.60;;;;;;;18.13;100.00;94429.28;5045317;28;20474;-87
2023/06/06 06:00:25;;;;;;;6.10;3.00;;;;;;;17.79;100.00;94423.66;5061802;28;20349;-88
2023/06/06 06:02:52;;;;;;;5.57;2.65;;;;;;;18.02;100.00;94431.44;5045264;28;20035;-88
2023/06/06 06:05:18;;;;;;;2.63;2.25;;;;;;;18.23;100.00;94429.75;5061932;28;20043;-88
2023/06/06 06:07:44;;;;;;;6.20;2.03;;;;;;;18.36;100.00;94433.31;5061293;28;20036;-88
2023/06/06 06:10:10;;;;;;;6.82;2.92;;;;;;;17.94;100.00;94439.09;5044616;28;20433;-89
2023/06/06 06:12:35;;;;;;;3.53;2.60;;;;;;;18.27;100.00;94439.72;5061575;28;20033;-88
2023/06/06 06:20:29;;;;;;;4.82;2.70;;;;;;;18.34;100.00;94446.09;5064130;28;20097;-88
2023/06/06 06:22:54;;;;;;;4.80;2.60;;;;;;;18.19;100.00;94450.00;5061044;28;20032;-88
2023/06/06 06:25:20;;;;;;;3.55;2.65;;;;;;;18.10;100.00;94446.59;5044903;28;20028;-88
2023/06/06 06:30:30;;;;;;;5.78;2.22;;;;;;;17.61;100.00;94452.75;5063981;28;20032;-88
2023/06/06 06:32:56;;;;;;;3.90;2.97;;;;;;;17.89;100.00;94447.19;5044761;28;20028;-88
2023/06/06 06:35:21;;;;;;;5.78;2.30;;;;;;;18.59;100.00;94453.53;5044989;28;20086;-89
2023/06/06 06:37:47;;;;;;;18.30;3.90;;;;;;;18.56;100.00;94456.84;5044700;28;20020;-88
2023/06/06 06:42:57;;;;;;;4.75;3.00;;;;;;;18.81;100.00;94455.19;5063692;28;20040;-87
2023/06/06 06:45:23;;;;;;;5.65;3.03;;;;;;;19.05;100.00;94467.19;5044170;28;20032;-89
2023/06/06 06:48:10;;;;;;;8.32;2.70;;;;;;;18.75;100.00;94469.75;5060970;28;20115;-90
2023/06/06 06:50:55;;;;;;;7.00;3.17;;;;;;;18.55;100.00;94471.19;5044540;28;20346;-90
2023/06/06 06:53:23;;;;;;;5.85;2.60;;;;;;;18.49;100.00;94460.72;5060534;28;20043;-89
2023/06/06 06:55:52;;;;;;;6.32;2.95;;;;;;;18.37;100.00;94464.03;5061142;28;20028;-89
2023/06/06 07:01:27;;;;;;;6.28;2.08;;;;;;;18.72;100.00;94471.16;5063241;28;20551;-89
2023/06/06 07:04:13;;;;;;;5.10;2.47;;;;;;;18.88;100.00;94465.31;5045111;28;20410;-89
2023/06/06 07:06:41;;;;;;;3.90;2.28;;;;;;;19.13;100.00;94460.28;5044083;28;20070;-89
2023/06/06 07:09:06;;;;;;;4.30;2.35;;;;;;;19.36;100.00;94458.13;5060565;28;20036;-90
2023/06/06 07:11:32;;;;;;;8.75;2.50;;;;;;;19.30;100.00;94462.84;5060346;28;20039;-89
2023/06/06 07:13:57;;;;;;;4.30;1.85;;;;;;;19.97;100.00;94464.19;5060508;28;20139;-90
2023/06/06 07:16:25;;;;;;;5.28;2.20;;;;;;;18.86;100.00;94467.53;5043424;28;20079;-89
2023/06/06 07:18:52;;;;;;;7.05;2.40;;;;;;;18.34;100.00;94462.00;5044014;28;20379;-89
2023/06/06 07:21:21;;;;;;;6.18;2.30;;;;;;;19.01;100.00;94459.06;5043853;28;20037;-90
2023/06/06 07:23:50;;;;;;;3.92;1.80;;;;;;;19.14;100.00;94462.59;5043796;28;20033;-89
2023/06/06 07:26:17;;;;;;;5.10;2.00;;;;;;;20.05;100.00;94477.41;5043804;28;20032;-90
2023/06/06 07:28:43;;;;;;;7.68;2.67;;;;;;;19.98;100.00;94474.47;5043522;28;20036;-89
2023/06/06 07:36:36;;;;;;;4.40;2.30;;;;;;;19.87;100.00;94473.28;5062768;28;20075;-89
2023/06/06 07:39:21;;;;;;;3.92;2.30;;;;;;;19.69;100.00;94472.63;5043711;28;20115;-90
2023/06/06 07:42:07;;;;;;;4.00;2.72;;;;;;;19.32;100.00;94484.53;5059894;28;20035;-89
2023/06/06 07:44:32;;;;;;;5.93;2.88;;;;;;;18.60;100.00;94477.13;5060279;28;20119;-90
2023/06/06 07:47:00;;;;;;;3.58;2.70;;;;;;;19.10;100.00;94482.16;5042674;28;20078;-90
2023/06/06 07:49:25;;;;;;;5.18;3.95;;;;;;;20.11;100.00;94471.88;5043385;28;20050;-89
2023/06/06 07:52:10;;;;;;;7.88;4.45;;;;;;;20.79;100.00;94468.13;5042525;28;20024;-90
2023/06/06 07:54:57;;;;;;;9.77;4.03;;;;;;;20.68;100.00;94467.78;5059820;28;20056;-90
2023/06/06 07:57:23;;;;;;;7.07;4.03;;;;;;;20.68;100.00;94467.00;5043224;28;20032;-90
2023/06/06 08:00:13;;;;;;;5.57;3.78;;;;;;;19.30;100.00;94468.16;5059625;28;20091;-90
2023/06/06 08:02:39;;;;;;;5.25;3.95;;;;;;;19.18;100.00;94470.69;5043665;28;20077;-89
2023/06/06 08:05:06;;;;;;;4.70;4.05;;;;;;;20.23;100.00;94461.31;5059363;28;20028;-87
2023/06/06 08:10:19;;;;;;;5.15;3.80;;;;;;;21.54;100.00;94462.88;5062052;28;20354;-90
2023/06/06 08:12:45;;;;;;;8.00;4.53;;;;;;;22.34;100.00;94465.91;5043104;28;20033;-90
2023/06/06 08:15:10;;;;;;;3.80;3.40;;;;;;;22.50;100.00;94468.66;5043110;28;20035;-88
2023/06/06 08:17:55;;;;;;;6.20;4.90;;;;;;;22.35;100.00;94477.38;5059184;28;20030;-90
2023/06/06 08:20:20;;;;;;;6.43;4.30;;;;;;;22.26;100.00;94469.53;5059528;28;20038;-90
2023/06/06 08:22:52;;;;;;;6.80;4.40;;;;;;;21.98;100.00;94465.69;5043128;28;20028;-90
2023/06/06 08:25:36;;;;;;;7.13;4.90;;;;;;;20.51;100.00;94471.38;5059395;28;20082;-90
2023/06/06 08:28:01;;;;;;;10.90;4.75;;;;;;;20.39;100.00;94464.16;5076774;28;20038;-89
2023/06/06 08:30:27;;;;;;;10.13;5.40;;;;;;;19.42;100.00;94464.03;5059458;28;20096;-90
2023/06/06 08:33:11;;;;;;;5.55;4.65;;;;;;;19.57;100.00;94470.66;5058962;28;20028;-89
2023/06/06 08:35:36;;;;;;;4.43;3.97;;;;;;;20.03;100.00;94468.19;5059052;28;20028;-91
2023/06/06 08:38:02;;;;;;;4.80;3.72;;;;;;;20.29;100.00;94472.53;5042364;28;20028;-89
2023/06/06 08:40:27;;;;;;;8.95;4.50;;;;;;;19.34;100.00;94478.91;5043161;28;20033;-89
2023/06/06 08:42:53;;;;;;;5.63;4.20;;;;;;;19.58;100.00;94480.19;5042768;28;20024;-90
2023/06/06 08:45:21;;;;;;;12.70;5.15;;;;;;;19.01;100.00;94480.31;5042820;28;20071;-89
2023/06/06 08:47:48;;;;;;;6.32;4.30;;;;;;;19.36;100.00;94482.78;5042550;28;20024;-87
2023/06/06 08:50:15;;;;;;;12.88;5.22;;;;;;;18.61;100.00;94486.63;5042457;28;20041;-89
2023/06/06 08:53:04;;;;;;;7.80;4.90;;;;;;;19.43;100.00;94486.84;5042673;28;20032;-90
2023/06/06 08:55:33;;;;;;;7.63;5.43;;;;;;;19.42;100.00;94479.97;5058960;28;20047;-90
2023/06/06 08:58:17;;;;;;;6.25;4.75;;;;;;;19.49;100.00;94486.34;5058898;28;20029;-90
2023/06/06 09:00:42;;;;;;;7.70;5.57;;;;;;;19.10;100.00;94480.25;5058681;28;20043;-90
2023/06/06 09:03:12;;;;;;;11.38;6.28;;;;;;;18.87;100.00;94485.00;5062427;28;20056;-90
2023/06/06 09:05:38;;;;;;;9.20;6.07;;;;;;;18.70;100.00;94483.97;5047035;28;20043;-90
2023/06/06 09:08:04;;;;;;;12.80;6.40;;;;;;;18.65;100.00;94481.47;5046193;28;20032;-90
2023/06/06 09:10:31;;;;;;;12.95;7.68;;;;;;;18.60;100.00;94478.97;5046367;28;20035;-90
2023/06/06 09:12:57;;;;;;;9.70;6.72;;;;;;;18.41;100.00;94481.97;5046412;28;20353;-90
2023/06/06 09:15:25;;;;;;;13.88;6.45;;;;;;;18.90;100.00;94481.72;5046058;28;20119;-89
2023/06/06 09:17:53;;;;;;;19.95;9.57;;;;;;;19.07;100.00;94481.66;5046606;28;20029;-90
2023/06/06 09:20:19;;;;;;;15.88;11.48;;;;;;;19.02;100.00;94481.09;5062490;28;20079;-90
2023/06/06 09:22:46;;;;;;;17.85;13.02;;;;;;;18.15;100.00;94488.09;5045884;28;20028;-89
2023/06/06 09:28:08;;;;;;;16.42;11.02;;;;;;;19.07;100.00;94497.59;5065039;28;20081;-90
2023/06/06 09:30:35;;;;;;;18.55;12.32;;;;;;;19.45;100.00;94505.91;5062522;28;20034;-89
2023/06/06 09:33:03;;;;;;;13.70;10.02;;;;;;;19.97;100.00;94499.53;5062612;28;20028;-91
2023/06/06 09:35:48;;;;;;;15.85;10.70;;;;;;;20.05;100.00;94497.91;5062240;28;20501;-90
2023/06/06 09:38:19;;;;;;;11.18;9.18;;;;;;;20.20;100.00;94492.00;5045420;28;20048;-90
2023/06/06 09:40:55;;;;;;;13.82;7.63;;;;;;;20.43;100.00;94480.22;5059344;28;20362;-90
2023/06/06 09:43:24;;;;;;;13.13;10.77;;;;;;;19.69;100.00;94488.59;5042917;28;20032;-89
2023/06/06 09:45:51;;;;;;;12.35;9.23;;;;;;;20.32;100.00;94480.63;5042739;28;20032;-90
2023/06/06 09:48:20;;;;;;;14.48;9.82;;;;;;;20.96;100.00;94479.72;5059155;28;20123;-88
2023/06/06 09:54:08;;;;;;;11.68;9.10;;;;;;;20.45;100.00;94486.78;5079740;28;20350;-90
2023/06/06 09:56:38;;;;;;;17.90;9.88;;;;;;;20.69;100.00;94484.50;5045078;28;20024;-90
2023/06/06 10:02:25;;;;;;;11.35;6.90;;;;;;;21.19;100.00;94472.88;5064440;28;20128;-89
2023/06/06 10:04:52;;;;;;;10.10;8.23;;;;;;;21.02;100.00;94465.88;5061584;28;20031;-90
2023/06/06 10:07:18;;;;;;;11.82;8.07;;;;;;;;;;5061586;28;20036;-89
2023/06/06 10:09:46;;;;;;;11.38;8.05;;;;;;;21.46;100.00;94478.66;5079683;28;20034;-89
2023/06/06 10:12:12;;;;;;;11.40;9.15;;;;;;;20.15;100.00;94481.56;5045579;28;20039;-89
2023/06/06 10:14:38;;;;;;;12.48;7.47;;;;;;;20.71;100.00;94477.78;5044615;28;20036;-90
2023/06/06 10:17:06;;;;;;;7.45;6.50;;;;;;;21.33;100.00;94477.88;5044497;28;20028;-91
2023/06/06 10:19:32;;;;;;;14.75;6.78;;;;;;;21.48;100.00;94486.31;5045202;28;20078;-92
2023/06/06 10:25:05;;;;;;;8.05;6.88;;;;;;;22.43;100.00;94471.91;5064323;28;20369;-91
2023/06/06 10:34:10;;;;;;;8.95;7.70;;;;;;;21.35;100.00;94482.09;5079132;28;20032;-91
2023/06/06 10:36:40;;;;;;;10.70;7.45;;;;;;;21.36;100.00;94481.75;5045034;28;20032;-88
2023/06/06 10:39:15;;;;;;;10.27;8.43;;;;;;;20.30;100.00;94479.41;5045208;28;20028;-92
2023/06/06 10:41:41;;;;;;;10.63;8.70;;;;;;;20.29;100.00;94493.81;5061413;28;20094;-91
2023/06/06 10:47:20;;;;;;;15.52;9.68;;;;;;;19.71;100.00;94497.00;5078702;28;20473;-91
2023/06/06 10:50:08;;;;;;;276.10;25.40;;;;;;;18.19;100.00;94497.75;5078824;28;20067;-93
2023/06/06 10:52:53;;;;;;;223.63;27.38;;;;;;;17.54;100.00;94500.13;5061345;28;20389;-91
2023/06/06 10:55:24;;;;;;;58.83;18.75;;;;;;;17.14;100.00;94498.28;5061400;28;20174;-92
2023/06/06 11:01:05;;;;;;;20.58;14.65;;;;;;;18.34;100.00;94482.44;5063482;28;20123;-90
2023/06/06 11:03:40;;;;;;;14.60;9.88;;;;;;;18.86;100.00;94488.75;5060840;28;20024;-92
2023/06/06 11:06:13;;;;;;;11.43;8.65;;;;;;;19.26;100.00;94485.03;5044708;28;20337;-92
2023/06/06 11:09:11;;;;;;;;;;;;;;;19.84;100.00;94485.34;5044846;28;20031;-92
2023/06/06 11:14:57;;;;;;;12.38;5.80;;;;;;;21.08;100.00;94484.28;5063437;28;20043;-90
2023/06/06 11:20:25;;;;;;;6.20;4.90;;;;;;;22.01;100.00;94488.25;5057345;28;20137;-87
2023/06/06 11:23:10;;;;;;;10.25;6.68;;;;;;;21.72;100.00;94482.84;5052459;28;20346;-87
2023/06/06 11:25:36;;;;;;;9.00;6.30;;;;;;;22.76;100.00;94480.78;5050455;28;20487;-87
2023/06/06 11:28:02;;;;;;;15.48;12.55;;;;;;;22.28;100.00;94476.06;5023750;28;20025;-87
2023/06/06 11:30:51;;;;;;;14.98;10.57;;;;;;;23.06;100.00;94477.69;5040384;28;20365;-87
2023/06/06 11:33:16;;;;;;;16.02;12.85;;;;;;;21.51;100.00;94480.28;5057581;28;20354;-84
2023/06/06 11:35:42;;;;;;;15.60;12.77;;;;;;;21.93;100.00;94473.16;5023366;28;20029;-87
2023/06/06 11:38:08;;;;;;;17.48;12.68;;;;;;;22.45;100.00;94472.31;5040065;28;20033;-83
2023/06/06 11:40:52;;;;;;;22.48;14.77;;;;;;;21.75;100.00;94474.22;5039824;28;20037;-86
2023/06/06 11:43:17;;;;;;;18.38;14.07;;;;;;;21.83;100.00;94474.41;5039529;28;20029;-87
2023/06/06 11:48:45;;;;;;;13.88;11.82;;;;;;;22.33;100.00;94466.28;5057123;28;20090;-87
2023/06/06 11:51:14;;;;;;;10.30;8.93;;;;;;;22.49;100.00;94461.78;5059416;28;20073;-87
2023/06/06 11:54:09;;;;;;;12.18;10.02;;;;;;;22.69;100.00;94464.56;5043123;28;20444;-87
2023/06/06 11:56:35;;;;;;;16.05;9.98;;;;;;;22.35;100.00;94469.38;5042999;28;20036;-85
2023/06/06 11:59:00;;;;;;;9.98;8.13;;;;;;;21.64;100.00;94458.97;5042712;28;20029;-87
2023/06/06 12:01:26;;;;;;;7.85;6.85;;;;;;;22.09;100.00;94455.31;5042812;28;20036;-87
2023/06/06 12:03:52;;;;;;;6.85;3.45;;;;;;;22.63;100.00;94447.25;5059304;28;20111;-87
2023/06/06 12:06:17;;;;;;;8.57;5.10;;;;;;;22.86;100.00;94453.53;5076912;28;20036;-87
2023/06/06 12:11:29;;;;;;;5.30;2.40;;;;;;;22.57;100.00;94449.38;5077034;28;20073;-87
2023/06/06 12:13:54;;;;;;;5.03;1.70;;;;;;;23.41;100.00;94454.88;5059390;28;20025;-87
2023/06/06 12:16:24;;;;;;;2.33;1.55;;;;;;;24.54;100.00;94457.94;5058784;28;20463;-84
2023/06/06 12:18:50;;;;;;;1.85;1.45;;;;;;;24.54;100.00;94460.63;5058833;28;20085;-85
2023/06/06 12:24:18;;;;;;;3.15;1.65;;;;;;;26.30;100.00;94452.94;5061422;28;20102;-85
2023/06/06 12:27:03;;;;;;;3.70;1.98;;;;;;;25.38;100.00;94454.72;5042192;28;20119;-88
2023/06/06 12:29:35;;;;;;;4.65;1.50;;;;;;;25.89;100.00;94458.16;5058937;28;20032;-84
2023/06/06 12:32:21;;;;;;;3.00;1.63;;;;;;;25.72;99.42;94462.13;5059097;28;20028;-85
2023/06/06 12:38:01;;;;;;;4.55;1.90;;;;;;;23.82;100.00;94458.06;5060295;28;20099;-87
2023/06/06 12:40:37;;;;;;;1.83;1.60;;;;;;;23.71;100.00;94454.38;5076427;28;20032;-85
2023/06/06 12:43:40;;;;;;;4.90;2.05;;;;;;;22.58;100.00;94449.03;5076473;28;20430;-85
2023/06/06 12:46:05;;;;;;;3.22;2.17;;;;;;;22.83;100.00;94442.78;5076282;28;20081;-87
2023/06/06 12:48:31;;;;;;;2.17;1.95;;;;;;;22.62;100.00;94446.47;5058688;28;20028;-87
2023/06/06 12:50:56;;;;;;;2.58;2.10;;;;;;;21.57;100.00;94447.00;5058804;28;20029;-87
2023/06/06 12:53:22;;;;;;;5.22;3.00;;;;;;;20.05;100.00;94452.69;5058825;28;20044;-87
2023/06/06 12:55:47;;;;;;;9.52;3.67;;;;;;;19.11;100.00;94451.84;5048019;28;20508;-88
2023/06/06 12:58:13;;;;;;;10.82;4.05;;;;;;;19.60;100.00;94448.78;5029303;28;20124;-87
2023/06/06 13:00:40;;;;;;;9.52;5.80;;;;;;;20.13;100.00;94445.75;5038659;28;20036;-87
2023/06/06 13:03:24;;;;;;;13.02;7.47;;;;;;;20.70;100.00;94457.59;5039131;28;20020;-86
2023/06/06 13:05:53;;;;;;;10.90;6.28;;;;;;;20.96;100.00;94448.56;5038630;28;20402;-87
2023/06/06 13:08:56;;;;;;;12.80;8.18;;;;;;;20.69;100.00;94453.38;5039213;28;20037;-84
2023/06/06 13:11:22;;;;;;;12.20;8.73;;;;;;;20.63;100.00;94458.13;5038602;28;20039;-87
2023/06/06 13:13:50;;;;;;;13.98;8.98;;;;;;;20.76;100.00;94458.91;5039357;28;20037;-88
2023/06/06 13:19:18;;;;;;;16.20;8.93;;;;;;;20.67;100.00;94452.13;5041465;28;20404;-88
2023/06/06 13:21:47;;;;;;;17.23;11.77;;;;;;;20.51;100.00;94454.63;5056028;28;20052;-88
2023/06/06 13:24:13;;;;;;;22.70;13.50;;;;;;;20.47;100.00;94455.28;5038960;28;20029;-87
2023/06/06 13:26:40;;;;;;;16.58;12.52;;;;;;;20.40;100.00;94454.28;5038383;28;20052;-88